New Orleans, Louisiana
Traffic Map
Current Weather Conditions
New Orleans, Louisiana
Clear
Clear
30°
Feels Like: 35°
Wind Chill: 30° Ceiling: Unl
Heat Index: 35° Visibility: 10mi
Dew Point: 24° Wind: 3mph
Humidity: 70% Direction: 220° (SW)
Pressure: 30.01in Gusts: 0mph
Raw Report DataK7N0 290635Z AUTO 22003KT 10SM CLR 30/24 A3001 RMK AO1
Traffic Incident Summary
Active as of:
Severity:
Category:
InformationThere was an issue retrieving the traffic information for this location. Please try a different location or try again shortly.
Advertisements
Track Severe Weather on mobile